1862 NOT_NAMED (1862001S12081)


IBTrACS version v04r00. Visit IBTrACS website for data access.
Please direct all questions to the IBTrACS Q and A forum

Storm track - Intensity - Wind Radii - Intensity Data - Source Data - All data

Summary Information

Storm ID 1862001S12081
Start Jan 1 06Z
End Jan 9 06Z
ATCF IDs
Track status Best track data.

Storm track plot

Map of storm track

Intensity plots

No Intensity information for this storm


Radial wind information

No radial wind information for this storm


Position and Intensity Table

BASIN ISO_TIME_________ NATURE LAT LON
degrees north degrees east
SI 1862-01-01 06:00:00 NR -11.90 81.45
SI 09:00:00 NR -11.96 81.33
SI 12:00:00 NR -12.02 81.20
SI 15:00:00 NR -12.09 81.07
SI 18:00:00 NR -12.17 80.94
SI 21:00:00 NR -12.27 80.79
SI 1862-01-02 00:00:00 NR -12.38 80.64
SI 03:00:00 NR -12.51 80.47
SI 06:00:00 NR -12.65 80.30
SI 09:00:00 NR -12.80 80.12
SI 12:00:00 NR -12.95 79.93
SI 15:00:00 NR -13.12 79.74
SI 18:00:00 NR -13.28 79.55
SI 21:00:00 NR -13.45 79.36
SI 1862-01-03 00:00:00 NR -13.62 79.18
SI 03:00:00 NR -13.78 79.01
SI 06:00:00 NR -13.95 78.85
SI 09:00:00 NR -14.11 78.70
SI 12:00:00 NR -14.27 78.56
SI 15:00:00 NR -14.43 78.43
SI 18:00:00 NR -14.61 78.31
SI 21:00:00 NR -14.82 78.19
SI 1862-01-04 00:00:00 NR -15.04 78.08
SI 03:00:00 NR -15.25 77.99
SI 06:00:00 NR -15.45 77.90
SI 09:00:00 NR -15.61 77.83
SI 12:00:00 NR -15.75 77.76
SI 15:00:00 NR -15.88 77.71
SI 18:00:00 NR -16.02 77.68
SI 21:00:00 NR -16.18 77.65
SI 1862-01-05 00:00:00 NR -16.34 77.63
SI 03:00:00 NR -16.50 77.61
SI 06:00:00 NR -16.65 77.60
SI 09:00:00 NR -16.78 77.58
SI 12:00:00 NR -16.91 77.56
SI 15:00:00 NR -17.04 77.55
SI 18:00:00 NR -17.16 77.55
SI 21:00:00 NR -17.29 77.55
SI 1862-01-06 00:00:00 NR -17.42 77.56
SI 03:00:00 NR -17.55 77.57
SI 06:00:00 NR -17.70 77.60
SI 09:00:00 NR -17.86 77.64
SI 12:00:00 NR -18.03 77.68
SI 15:00:00 NR -18.20 77.73
SI 18:00:00 NR -18.36 77.78
SI 21:00:00 NR -18.53 77.83
SI 1862-01-07 00:00:00 NR -18.57 77.83
SI 03:00:00 NR -18.58 77.83
SI 06:00:00 NR -18.52 77.80
SI 09:00:00 NR -18.36 77.74
SI 12:00:00 NR -18.53 77.78
SI 15:00:00 NR -18.70 77.83
SI 18:00:00 NR -18.87 77.88
SI 21:00:00 NR -19.04 77.93
SI 1862-01-08 00:00:00 NR -19.20 77.98
SI 03:00:00 NR -19.36 78.04
SI 06:00:00 NR -19.50 78.10
SI 09:00:00 NR -19.63 78.16
SI 12:00:00 NR -19.75 78.22
SI 15:00:00 NR -19.86 78.28
SI 18:00:00 NR -19.96 78.34
SI 21:00:00 NR -20.05 78.41
SI 1862-01-09 00:00:00 NR -20.13 78.47
SI 03:00:00 NR -20.22 78.54
SI 06:00:00 NR -20.30 78.60

Source Information

Agency Information
USA
TOKYO
CMA
HKO
NEWDELHI
REUNION WMO-Best-Tracks.txt:Line=418:xxxx862060
BOM
NADI
WELLINGTON
DS824
TD9636 cons_worldwide_trop_cyclone_18710101-19891231-005:Line=563
TD9635
NEUMANN
MLC

All available IBTrACS Data

SEASON BASIN SUBBASIN ISO_TIME_________ NATURE LAT LON WMO AGENCY DIST2LAND LANDFALL IFLAG USA SSHS REUNION LAT REUNION LON REUNION TYPE REUNION TNUM TD9636 LAT TD9636 LON TD9636 STAGE STORM SPEED STORM DIR
Year degrees north degrees east km km 1 degrees north degrees east 1 degrees north degrees east kts degrees
1862 SI MM 1862-01-01 06:00:00 NR -11.90 81.45 1996 1995 _____O____O___ -1 -11.70 81.80 99 9.90 -12.10 81.10 7 3 244
1862 SI MM 09:00:00 NR -11.96 81.33 2007 2006 _____P____P___ -1 -11.73 81.72 99 -12.18 80.93 7 3 244
1862 SI MM 12:00:00 NR -12.02 81.20 2006 2006 _____P____P___ -1 -11.76 81.65 99 -12.27 80.76 7 3 242
1862 SI MM 15:00:00 NR -12.09 81.07 2017 2017 _____P____P___ -1 -11.80 81.56 99 -12.38 80.58 7 3 240
1862 SI MM 18:00:00 NR -12.17 80.94 2028 2028 _____P____O___ -1 -11.84 81.47 99 -12.50 80.40 7 3 237
1862 SI MM 21:00:00 NR -12.27 80.79 2039 2039 _____P____P___ -1 -11.89 81.37 99 -12.65 80.21 7 4 234
1862 SI MM 1862-01-02 00:00:00 NR -12.38 80.64 2050 2050 _____P____P___ -1 -11.95 81.26 99 -12.82 80.01 7 4 232
1862 SI MM 03:00:00 NR -12.51 80.47 2061 2061 _____P____P___ -1 -12.02 81.14 99 -13.01 79.80 7 4 231
1862 SI MM 06:00:00 NR -12.65 80.30 2073 2073 _____O____O___ -1 -12.10 81.00 99 9.90 -13.20 79.60 7 5 230
1862 SI MM 09:00:00 NR -12.80 80.12 2095 2095 _____P____P___ -1 -12.20 80.84 99 -13.40 79.39 7 5 230
1862 SI MM 12:00:00 NR -12.95 79.93 2118 2118 _____P____P___ -1 -12.31 80.67 99 -13.60 79.19 7 5 229
1862 SI MM 15:00:00 NR -13.12 79.74 2131 2131 _____P____P___ -1 -12.43 80.49 99 -13.80 78.99 7 5 228
1862 SI MM 18:00:00 NR -13.28 79.55 2154 2154 _____P____O___ -1 -12.57 80.30 99 -14.00 78.80 7 5 228
1862 SI MM 21:00:00 NR -13.45 79.36 2166 2166 _____P____P___ -1 -12.71 80.10 99 -14.19 78.62 7 5 227
1862 SI MM 1862-01-03 00:00:00 NR -13.62 79.18 2190 2190 _____P____P___ -1 -12.87 79.90 99 -14.36 78.46 7 5 226
1862 SI MM 03:00:00 NR -13.78 79.01 2214 2214 _____P____P___ -1 -13.03 79.70 99 -14.54 78.32 7 5 224
1862 SI MM 06:00:00 NR -13.95 78.85 reunion 2226 2238 _____O____O___ -1 -13.20 79.50 99 9.90 -14.70 78.20 7 4 223
1862 SI MM 09:00:00 NR -14.11 78.70 2250 2250 _____P____P___ -1 -13.37 79.30 99 -14.84 78.10 7 4 221
1862 SI MM 12:00:00 NR -14.27 78.56 2273 2273 _____P____P___ -1 -13.55 79.11 99 -14.98 78.02 7 4 218
1862 SI MM 15:00:00 NR -14.43 78.43 2282 2264 _____P____P___ -1 -13.74 78.91 99 -15.13 77.96 7 4 215
1862 SI MM 18:00:00 NR -14.61 78.31 2264 2246 _____P____O___ -1 -13.93 78.73 99 -15.30 77.90 7 5 211
1862 SI MM 21:00:00 NR -14.82 78.19 2246 2229 _____P____P___ -1 -14.12 78.55 99 -15.52 77.84 7 5 207
1862 SI MM 1862-01-04 00:00:00 NR -15.04 78.08 2229 2212 _____P____P___ -1 -14.32 78.38 99 -15.76 77.79 7 5 205
1862 SI MM 03:00:00 NR -15.25 77.99 2209 2195 _____P____P___ -1 -14.51 78.23 99 -16.00 77.74 7 4 203
1862 SI MM 06:00:00 NR -15.45 77.90 reunion 2195 2178 _____O____O___ -1 -14.70 78.10 99 9.90 -16.20 77.70 7 4 204
1862 SI MM 09:00:00 NR -15.61 77.83 2178 2175 _____P____P___ -1 -14.89 77.99 99 -16.33 77.66 7 3 204
1862 SI MM 12:00:00 NR -15.75 77.76 2175 2158 _____P____P___ -1 -15.07 77.89 99 -16.42 77.63 7 3 201
1862 SI MM 15:00:00 NR -15.88 77.71 2158 2155 _____P____P___ -1 -15.26 77.82 99 -16.51 77.61 7 3 198
1862 SI MM 18:00:00 NR -16.02 77.68 2155 2139 _____P____O___ -1 -15.44 77.75 99 -16.60 77.60 7 3 194
1862 SI MM 21:00:00 NR -16.18 77.65 2139 2136 _____P____P___ -1 -15.61 77.70 99 -16.74 77.59 7 3 187
1862 SI MM 1862-01-05 00:00:00 NR -16.34 77.63 2136 2130 _____P____P___ -1 -15.78 77.66 99 -16.89 77.59 7 3 188
1862 SI MM 03:00:00 NR -16.50 77.61 2130 2127 _____P____P___ -1 -15.95 77.63 99 -17.05 77.60 7 3 0
1862 SI MM 06:00:00 NR -16.65 77.60 reunion 2127 2122 _____O____O___ -1 -16.10 77.60 99 9.90 -17.20 77.60 7 3 188
1862 SI MM 09:00:00 NR -16.78 77.58 2122 2119 _____P____P___ -1 -16.24 77.56 99 -17.33 77.60 7 3 189
1862 SI MM 12:00:00 NR -16.91 77.56 2119 2117 _____P____P___ -1 -16.37 77.53 99 -17.45 77.59 7 3 0
1862 SI MM 15:00:00 NR -17.04 77.55 2117 2101 _____P____P___ -1 -16.50 77.51 99 -17.57 77.59 7 3 186
1862 SI MM 18:00:00 NR -17.16 77.55 2101 2099 _____P____O___ -1 -16.62 77.50 99 -17.70 77.60 7 3 0
1862 SI MM 21:00:00 NR -17.29 77.55 2099 2099 _____P____P___ -1 -16.74 77.49 99 -17.83 77.61 7 3 0
1862 SI MM 1862-01-06 00:00:00 NR -17.42 77.56 2107 2105 _____P____P___ -1 -16.86 77.49 99 -17.98 77.63 7 3 0
1862 SI MM 03:00:00 NR -17.55 77.57 2102 2100 _____P____P___ -1 -16.98 77.49 99 -18.13 77.66 7 3 171
1862 SI MM 06:00:00 NR -17.70 77.60 reunion 2100 2096 _____O____O___ -1 -17.10 77.50 99 9.90 -18.30 77.70 7 3 170
1862 SI MM 09:00:00 NR -17.86 77.64 2096 2096 _____P____P___ -1 -17.23 77.51 99 -18.49 77.76 7 3 166
1862 SI MM 12:00:00 NR -18.03 77.68 2104 2100 _____P____P___ -1 -17.36 77.52 99 -18.69 77.84 7 4 166
1862 SI MM 15:00:00 NR -18.20 77.73 2100 2099 _____P____P___ -1 -17.49 77.54 99 -18.90 77.92 7 4 164
1862 SI MM 18:00:00 NR -18.36 77.78 2107 2105 _____P____O___ -1 -17.63 77.56 99 -19.10 78.00 7 3 165
1862 SI MM 21:00:00 NR -18.53 77.83 2105 2104 _____P____P___ -1 -17.77 77.59 99 -19.29 78.06 7 2 166
1862 SI MM 1862-01-07 00:00:00 NR -18.57 77.83 2104 2104 _____P____P___ -1 -17.91 77.62 99 -19.46 78.12 7 1 201
1862 SI MM 03:00:00 NR -18.58 77.83 2104 2104 _____P____P___ -1 -18.05 77.66 99 -19.63 78.16 7 1 323
1862 SI MM 06:00:00 NR -18.52 77.80 reunion 2105 2097 _____O____O___ -1 -18.20 77.70 99 9.90 -19.80 78.20 7 2 340
1862 SI MM 09:00:00 NR -18.36 77.74 2097 2097 _____P________ -1 -18.36 77.74 99 7 0 0
1862 SI MM 12:00:00 NR -18.53 77.78 2105 2102 _____P________ -1 -18.53 77.78 99 7 4 166
1862 SI MM 15:00:00 NR -18.70 77.83 2102 2101 _____P________ -1 -18.70 77.83 99 7 4 165
1862 SI MM 18:00:00 NR -18.87 77.88 2109 2108 _____P________ -1 -18.87 77.88 99 4 164
1862 SI MM 21:00:00 NR -19.04 77.93 2108 2107 _____P________ -1 -19.04 77.93 99 3 162
1862 SI MM 1862-01-08 00:00:00 NR -19.20 77.98 2116 2114 _____P________ -1 -19.20 77.98 99 3 162
1862 SI MM 03:00:00 NR -19.36 78.04 2113 2113 _____P________ -1 -19.36 78.04 99 3 160
1862 SI MM 06:00:00 NR -19.50 78.10 reunion 2122 2121 _____O________ -1 -19.50 78.10 99 9.90 3 157
1862 SI MM 09:00:00 NR -19.63 78.16 2132 2131 _____P________ -1 -19.63 78.16 99 3 156
1862 SI MM 12:00:00 NR -19.75 78.22 2131 2130 _____P________ -1 -19.75 78.22 99 3 152
1862 SI MM 15:00:00 NR -19.86 78.28 2139 2139 _____P________ -1 -19.86 78.28 99 2 151
1862 SI MM 18:00:00 NR -19.96 78.34 2138 2138 _____P________ -1 -19.96 78.34 99 2 149
1862 SI MM 21:00:00 NR -20.05 78.41 2149 2148 _____P________ -1 -20.05 78.41 99 2 146
1862 SI MM 1862-01-09 00:00:00 NR -20.13 78.47 2158 2157 _____P________ -1 -20.13 78.47 99 2 145
1862 SI MM 03:00:00 NR -20.22 78.54 2157 2157 _____P________ -1 -20.22 78.54 99 2 144
1862 SI MM 06:00:00 NR -20.30 78.60 reunion 2167 _____O________ -1 -20.30 78.60 99 9.90 2 148